Time;durP1;ratioP1;P1;durP2;ratioP2;P2;SDS_P1;SDS_P2;PMS_P1;PMS_P2;Temp;Humidity;BMP_temperature;BMP_pressure;BME280_temperature;BME280_humidity;BME280_pressure;Samples;Min_cycle;Max_cycle;Signal;HPM_P1;HPM_P2
2022/12/01 00:10:41;;;;;;;30.1;14.3;;;;;;;0.9;87;99800;;;;
2022/12/01 00:19:36;;;;;;;29.6;16.1;;;;;;;0.9;87;99800;;;;
2022/12/01 00:29:37;;;;;;;29.6;16.1;;;;;;;0.8;87;99800;;;;
2022/12/01 00:40:37;;;;;;;28.2;16.2;;;;;;;0.8;87.2;99810;;;;
2022/12/01 00:51:37;;;;;;;28.2;16.2;;;;;;;1;87.3;99810;;;;
2022/12/01 01:01:37;;;;;;;28.2;16.2;;;;;;;1.1;87;99800;;;;
2022/12/01 01:12:37;;;;;;;30.7;17.4;;;;;;;1;87.1;99790;;;;
2022/12/01 01:23:37;;;;;;;30.7;17.4;;;;;;;1.1;86.9;99780;;;;
2022/12/01 01:34:37;;;;;;;30.7;17.4;;;;;;;1;87;99770;;;;
2022/12/01 01:45:37;;;;;;;27.1;15.4;;;;;;;1.1;87.1;99780;;;;
2022/12/01 01:56:37;;;;;;;27.1;15.4;;;;;;;1.1;87;99760;;;;
2022/12/01 02:07:37;;;;;;;27.1;15.4;;;;;;;1.2;86.8;99760;;;;
2022/12/01 02:18:37;;;;;;;27.5;16.3;;;;;;;1.1;87.1;99760;;;;
2022/12/01 02:28:36;;;;;;;27.5;16.3;;;;;;;1.2;87.2;99760;;;;
2022/12/01 02:38:37;;;;;;;27.5;16.3;;;;;;;1.3;87;99760;;;;
2022/12/01 02:49:37;;;;;;;25;15.1;;;;;;;1.2;87;99750;;;;
2022/12/01 02:59:36;;;;;;;25;15.1;;;;;;;1.2;86.9;99740;;;;
2022/12/01 03:10:37;;;;;;;24.2;16.6;;;;;;;1.2;87.3;99740;;;;
2022/12/01 03:21:37;;;;;;;24.2;16.6;;;;;;;1.3;87.5;99740;;;;
2022/12/01 03:31:38;;;;;;;24.2;16.6;;;;;;;1.3;87.6;99740;;;;
2022/12/01 03:42:37;;;;;;;24.6;14.2;;;;;;;1.3;87.6;99730;;;;
2022/12/01 03:53:37;;;;;;;24.6;14.2;;;;;;;1.3;87.7;99720;;;;
2022/12/01 04:03:37;;;;;;;24.6;14.2;;;;;;;1.3;87.9;99710;;;;
2022/12/01 04:13:37;;;;;;;28.5;17.5;;;;;;;1.2;88.4;99710;;;;
2022/12/01 04:24:37;;;;;;;28.5;17.5;;;;;;;1.3;88.4;99710;;;;
2022/12/01 04:34:37;;;;;;;28.5;17.5;;;;;;;1.4;88.4;99710;;;;
2022/12/01 04:44:37;;;;;;;24;14.2;;;;;;;1.4;88.6;99710;;;;
2022/12/01 04:54:37;;;;;;;24;14.2;;;;;;;1.4;88.6;99720;;;;
2022/12/01 05:05:39;;;;;;;24;14.2;;;;;;;1.3;88.9;99720;;;;
2022/12/01 05:15:37;;;;;;;23.3;13.6;;;;;;;1.3;89.2;99710;;;;
2022/12/01 05:26:37;;;;;;;23.3;13.6;;;;;;;1.4;89.2;99720;;;;
2022/12/01 05:36:37;;;;;;;23.3;13.6;;;;;;;1.5;89.3;99720;;;;
2022/12/01 05:47:37;;;;;;;20;12.4;;;;;;;1.5;89.4;99730;;;;
2022/12/01 05:57:37;;;;;;;20;12.4;;;;;;;1.4;89.4;99740;;;;
2022/12/01 06:08:37;;;;;;;20;12.4;;;;;;;1.5;89;99750;;;;
2022/12/01 06:19:37;;;;;;;17.3;11;;;;;;;1.6;88.6;99750;;;;
2022/12/01 06:29:37;;;;;;;17.3;11;;;;;;;1.6;88.7;99750;;;;
2022/12/01 06:39:37;;;;;;;17.3;10.5;;;;;;;1.6;88.6;99750;;;;
2022/12/01 06:50:37;;;;;;;19;10.5;;;;;;;1.6;88.3;99750;;;;
2022/12/01 07:01:37;;;;;;;19;10.5;;;;;;;1.7;88.3;99750;;;;
2022/12/01 07:12:37;;;;;;;17.8;10.3;;;;;;;1.8;88.1;99750;;;;
2022/12/01 07:23:37;;;;;;;17.8;10.3;;;;;;;1.7;88;99750;;;;
2022/12/01 07:34:37;;;;;;;17.8;10.3;;;;;;;1.8;87.6;99750;;;;
2022/12/01 07:45:37;;;;;;;17.4;10.2;;;;;;;1.8;87.8;99750;;;;
2022/12/01 07:55:37;;;;;;;17.4;10.2;;;;;;;1.8;87.7;99750;;;;
2022/12/01 08:06:37;;;;;;;17.4;10.2;;;;;;;1.8;87.5;99750;;;;
2022/12/01 08:16:37;;;;;;;17.3;10;;;;;;;2;87.1;99760;;;;
2022/12/01 08:26:37;;;;;;;17.3;10;;;;;;;1.9;87.2;99770;;;;
2022/12/01 08:37:37;;;;;;;17.3;10;;;;;;;2.1;87.1;99770;;;;
2022/12/01 08:48:37;;;;;;;14.8;9.5;;;;;;;2.2;86.9;99780;;;;
2022/12/01 08:58:37;;;;;;;14.8;9.5;;;;;;;2.1;86.7;99780;;;;
2022/12/01 09:08:37;;;;;;;14.8;9.5;;;;;;;2.3;86.4;99780;;;;
2022/12/01 09:19:37;;;;;;;16.2;9.1;;;;;;;2.1;86.2;99770;;;;
2022/12/01 09:30:37;;;;;;;16.2;9.1;;;;;;;2.1;86.1;99770;;;;
2022/12/01 09:40:37;;;;;;;15.2;8.6;;;;;;;2.1;86.1;99770;;;;
2022/12/01 09:50:37;;;;;;;15.2;8.6;;;;;;;2;86.3;99760;;;;
2022/12/01 10:01:37;;;;;;;15.2;8.6;;;;;;;2.1;86;99750;;;;
2022/12/01 10:12:37;;;;;;;16.2;9.2;;;;;;;2;85.7;99750;;;;
2022/12/01 10:22:38;;;;;;;16.2;9.2;;;;;;;2.1;85.4;99750;;;;
2022/12/01 10:32:37;;;;;;;16.2;9.2;;;;;;;2;85;99740;;;;
2022/12/01 10:43:37;;;;;;;13.1;8.5;;;;;;;2.1;85.1;99730;;;;
2022/12/01 10:53:37;;;;;;;13.1;8.5;;;;;;;2;85.2;99720;;;;
2022/12/01 11:04:43;;;;;;;13.1;8.5;;;;;;;1.9;85.2;99710;;;;
2022/12/01 11:15:37;;;;;;;16;10.3;;;;;;;2;84.6;99710;;;;
2022/12/01 11:26:37;;;;;;;16;10.3;;;;;;;2.1;84.3;99700;;;;
2022/12/01 11:36:37;;;;;;;16;10.3;;;;;;;1.9;84.6;99700;;;;
2022/12/01 11:47:37;;;;;;;17.5;10.9;;;;;;;2;84.2;99700;;;;
2022/12/01 11:57:37;;;;;;;17.5;10.9;;;;;;;1.8;84.2;99710;;;;
2022/12/01 12:08:37;;;;;;;17.5;10.9;;;;;;;1.9;84.1;99700;;;;
2022/12/01 12:18:37;;;;;;;17.8;11.8;;;;;;;1.9;83.7;99700;;;;
2022/12/01 12:29:37;;;;;;;17.8;11.8;;;;;;;1.7;84;99710;;;;
2022/12/01 12:39:37;;;;;;;21.5;11.9;;;;;;;1.8;83.9;99700;;;;
2022/12/01 12:50:37;;;;;;;21.5;11.9;;;;;;;1.8;84.4;99710;;;;
2022/12/01 13:00:37;;;;;;;21.5;11.9;;;;;;;1.8;84.5;99710;;;;
2022/12/01 13:11:37;;;;;;;24.8;11.8;;;;;;;1.8;84.2;99710;;;;
2022/12/01 13:21:37;;;;;;;24.8;11.8;;;;;;;1.7;84.1;99710;;;;
2022/12/01 13:32:37;;;;;;;24.8;11.8;;;;;;;1.7;84.5;99700;;;;
2022/12/01 13:42:38;;;;;;;20.3;12;;;;;;;1.7;84.8;99710;;;;
2022/12/01 13:53:37;;;;;;;20.3;12;;;;;;;1.7;84.5;99710;;;;
2022/12/01 14:03:37;;;;;;;20.3;12;;;;;;;1.7;84.3;99710;;;;
2022/12/01 14:14:37;;;;;;;24.7;13.4;;;;;;;1.7;84.5;99710;;;;
2022/12/01 14:25:37;;;;;;;24.7;13.4;;;;;;;1.7;84.5;99710;;;;
2022/12/01 14:35:37;;;;;;;24.7;13.4;;;;;;;1.7;83.9;99710;;;;
2022/12/01 14:45:37;;;;;;;21;12.7;;;;;;;1.7;83.7;99710;;;;
2022/12/01 14:56:37;;;;;;;21;12.7;;;;;;;1.7;83.7;99710;;;;
2022/12/01 15:06:37;;;;;;;21;12.7;;;;;;;1.7;83.6;99710;;;;
2022/12/01 15:17:37;;;;;;;23.4;14.9;;;;;;;1.8;83.2;99710;;;;
2022/12/01 15:27:37;;;;;;;23.4;14.9;;;;;;;1.7;83.3;99710;;;;
2022/12/01 15:38:37;;;;;;;17.3;11.5;;;;;;;1.6;83.3;99720;;;;
2022/12/01 15:49:39;;;;;;;17.3;11.5;;;;;;;1.6;83.3;99710;;;;
2022/12/01 15:59:37;;;;;;;17.3;11.5;;;;;;;1.6;83;99710;;;;
2022/12/01 16:10:37;;;;;;;15.3;9.4;;;;;;;1.5;83.2;99710;;;;
2022/12/01 16:20:37;;;;;;;15.3;9.4;;;;;;;1.6;83.2;99710;;;;
2022/12/01 16:31:37;;;;;;;15.3;9.4;;;;;;;1.5;82.7;99710;;;;
2022/12/01 16:42:37;;;;;;;16.1;9.5;;;;;;;1.5;82.7;99710;;;;
2022/12/01 16:53:37;;;;;;;16.1;9.5;;;;;;;1.5;82.9;99710;;;;
2022/12/01 17:04:37;;;;;;;16.1;9.5;;;;;;;1.5;82.2;99700;;;;
2022/12/01 17:14:37;;;;;;;14.4;8.5;;;;;;;1.5;82.7;99700;;;;
2022/12/01 17:25:39;;;;;;;14.4;8.5;;;;;;;1.6;82.5;99700;;;;
2022/12/01 17:36:37;;;;;;;14.4;8.5;;;;;;;1.5;82.6;99710;;;;
2022/12/01 17:46:37;;;;;;;16.7;10.1;;;;;;;1.6;82.4;99710;;;;
2022/12/01 17:57:37;;;;;;;16.7;10.1;;;;;;;1.5;83;99700;;;;
2022/12/01 18:07:37;;;;;;;16.7;10.1;;;;;;;1.5;82.8;99700;;;;
2022/12/01 18:17:37;;;;;;;18.4;10.5;;;;;;;1.5;82.9;99700;;;;
2022/12/01 18:28:37;;;;;;;18.4;10.5;;;;;;;1.5;83;99700;;;;
2022/12/01 18:38:37;;;;;;;18;9.5;;;;;;;1.4;83.1;99710;;;;
2022/12/01 18:48:37;;;;;;;18;9.5;;;;;;;1.4;83.1;99700;;;;
2022/12/01 18:59:37;;;;;;;18;9.5;;;;;;;1.5;82.7;99700;;;;
2022/12/01 19:10:37;;;;;;;16.3;9.1;;;;;;;1.4;82.4;99700;;;;
2022/12/01 19:21:37;;;;;;;16.3;9.1;;;;;;;1.4;82.4;99690;;;;
2022/12/01 19:32:38;;;;;;;16.3;9.1;;;;;;;1.4;82.3;99690;;;;
2022/12/01 19:42:37;;;;;;;16;9;;;;;;;1.3;82.5;99690;;;;
2022/12/01 19:53:37;;;;;;;16;9;;;;;;;1.3;82.6;99690;;;;
2022/12/01 20:04:37;;;;;;;16;9;;;;;;;1.4;82.6;99690;;;;
2022/12/01 20:14:37;;;;;;;15.5;7.7;;;;;;;1.3;82.5;99690;;;;
2022/12/01 20:25:37;;;;;;;15.5;7.7;;;;;;;1.2;82.5;99690;;;;
2022/12/01 20:35:37;;;;;;;15.5;7.7;;;;;;;1.2;83;99690;;;;
2022/12/01 20:45:37;;;;;;;17.9;10.3;;;;;;;1.2;82.9;99680;;;;
2022/12/01 20:55:37;;;;;;;17.9;10.3;;;;;;;1.2;83;99680;;;;
2022/12/01 21:06:37;;;;;;;17.9;10.3;;;;;;;1;83.7;99680;;;;
2022/12/01 21:17:37;;;;;;;18.2;9.6;;;;;;;1.2;83.7;99680;;;;
2022/12/01 21:27:37;;;;;;;18.2;9.6;;;;;;;1.1;83.8;99680;;;;
2022/12/01 21:37:37;;;;;;;17.8;9.1;;;;;;;1;84.1;99680;;;;
2022/12/01 21:47:37;;;;;;;17.8;9.1;;;;;;;1;83.9;99680;;;;
2022/12/01 21:57:37;;;;;;;17.8;9.1;;;;;;;1;84.3;99680;;;;
2022/12/01 22:07:37;;;;;;;16.6;10;;;;;;;1;84.6;99670;;;;
2022/12/01 22:17:37;;;;;;;16.6;10;;;;;;;0.9;84.9;99680;;;;
2022/12/01 22:28:37;;;;;;;16.6;10;;;;;;;0.9;84.7;99670;;;;
2022/12/01 22:38:38;;;;;;;18.4;10;;;;;;;0.8;84.3;99660;;;;
2022/12/01 22:49:37;;;;;;;18.4;10;;;;;;;0.8;84.3;99660;;;;
2022/12/01 22:59:37;;;;;;;18.4;10;;;;;;;0.9;84.1;99660;;;;
2022/12/01 23:09:37;;;;;;;19.9;10.7;;;;;;;0.7;84.5;99650;;;;
2022/12/01 23:20:37;;;;;;;19.9;10.7;;;;;;;0.8;84.2;99650;;;;
2022/12/01 23:31:37;;;;;;;19.9;10.7;;;;;;;0.8;83.9;99650;;;;
2022/12/01 23:41:37;;;;;;;19.1;11.4;;;;;;;0.7;84.7;99650;;;;
2022/12/01 23:51:37;;;;;;;19.1;11.4;;;;;;;0.6;85.4;99660;;;;
